Time;durP1;ratioP1;P1;durP2;ratioP2;P2;SDS_P1;SDS_P2;PMS_P1;PMS_P2;Temp;Humidity;BMP_temperature;BMP_pressure;BME280_temperature;BME280_humidity;BME280_pressure;Samples;Min_cycle;Max_cycle;Signal;HPM_P1;HPM_P2
2021/12/29 00:00:27;;;;;;;0.90;0.70;;;18.40;68.10;;;;;;5021332;28;20049;-28
2021/12/29 00:02:58;;;;;;;0.85;0.60;;;18.40;68.00;;;;;;5015463;28;20037;-27
2021/12/29 00:05:24;;;;;;;0.65;0.57;;;18.40;68.10;;;;;;5015884;28;20042;-27
2021/12/29 00:07:49;;;;;;;0.32;0.30;;;18.30;68.10;;;;;;5011950;28;20129;-28
2021/12/29 00:10:15;;;;;;;0.65;0.40;;;18.30;68.10;;;;;;5011114;28;20046;-27
2021/12/29 00:12:45;;;;;;;0.40;0.30;;;18.30;68.10;;;;;;4996162;28;20042;-27
2021/12/29 00:15:12;;;;;;;0.40;0.40;;;18.40;68.00;;;;;;4995985;28;20038;-28
2021/12/29 00:17:43;;;;;;;0.40;0.30;;;18.30;68.20;;;;;;4996010;28;20061;-27
2021/12/29 00:20:19;;;;;;;0.82;0.50;;;18.30;68.10;;;;;;4995375;28;20038;-27
2021/12/29 00:22:44;;;;;;;0.38;0.28;;;18.30;68.20;;;;;;4995412;28;20042;-28
2021/12/29 00:25:11;;;;;;;0.50;0.43;;;18.30;68.30;;;;;;4995164;28;20049;-27
2021/12/29 00:27:36;;;;;;;0.47;0.47;;;18.30;68.20;;;;;;4993964;28;20141;-28
2021/12/29 00:30:03;;;;;;;0.30;0.30;;;18.30;68.20;;;;;;4995381;28;20062;-27
2021/12/29 00:32:29;;;;;;;0.40;0.30;;;18.30;68.30;;;;;;4995876;28;20134;-29
2021/12/29 00:34:54;;;;;;;0.40;0.40;;;18.30;68.40;;;;;;4995545;28;20482;-28
2021/12/29 00:37:20;;;;;;;1.13;0.40;;;18.30;68.50;;;;;;4995870;28;20077;-28
2021/12/29 00:39:45;;;;;;;0.30;0.30;;;18.30;69.30;;;;;;4995150;28;20108;-28
2021/12/29 00:42:11;;;;;;;0.20;0.20;;;18.30;68.50;;;;;;4995912;28;20030;-28
2021/12/29 00:44:37;;;;;;;0.30;0.30;;;18.20;68.50;;;;;;4996051;28;20034;-27
2021/12/29 00:47:02;;;;;;;0.32;0.30;;;18.20;68.60;;;;;;4994838;28;20094;-28
2021/12/29 00:49:34;;;;;;;0.30;0.30;;;18.30;68.50;;;;;;4995821;28;20128;-28
2021/12/29 00:52:00;;;;;;;0.63;0.40;;;18.20;68.50;;;;;;4994926;28;20047;-27
2021/12/29 00:54:26;;;;;;;0.32;0.20;;;18.20;68.60;;;;;;4995992;28;20042;-28
2021/12/29 00:56:52;;;;;;;1.00;0.30;;;18.20;68.50;;;;;;4979230;28;20487;-27
2021/12/29 00:59:19;;;;;;;0.65;0.30;;;18.20;68.60;;;;;;4982243;28;20115;-27
2021/12/29 01:01:48;;;;;;;0.30;0.30;;;18.20;68.60;;;;;;4995512;28;20062;-27
2021/12/29 01:04:14;;;;;;;0.40;0.40;;;18.20;68.50;;;;;;5014440;28;20138;-28
2021/12/29 01:06:39;;;;;;;0.50;0.28;;;18.20;68.70;;;;;;5015080;28;20081;-28
2021/12/29 01:09:05;;;;;;;0.30;0.30;;;18.20;68.80;;;;;;5014384;28;20042;-28
2021/12/29 01:11:30;;;;;;;0.35;0.28;;;18.20;68.70;;;;;;5015385;28;20390;-28
2021/12/29 01:13:56;;;;;;;0.30;0.20;;;18.20;68.70;;;;;;5014766;28;20041;-28
2021/12/29 01:19:04;;;;;;;0.30;0.20;;;18.20;68.70;;;;;;5014682;28;20041;-28
2021/12/29 01:21:31;;;;;;;0.25;0.25;;;18.20;68.60;;;;;;5015270;28;20038;-27
2021/12/29 01:23:57;;;;;;;0.40;0.30;;;18.20;68.60;;;;;;5017748;28;20040;-27
2021/12/29 01:26:23;;;;;;;0.30;0.25;;;18.20;68.60;;;;;;5008679;28;20480;-27
2021/12/29 01:28:48;;;;;;;0.20;0.20;;;18.20;68.50;;;;;;5014287;28;20052;-27
2021/12/29 01:31:14;;;;;;;0.20;0.20;;;18.20;68.50;;;;;;5016923;28;20102;-27
2021/12/29 01:33:40;;;;;;;0.25;0.25;;;18.20;68.60;;;;;;5017327;28;20535;-27
2021/12/29 01:36:05;;;;;;;0.40;0.40;;;18.20;68.50;;;;;;5018139;28;20105;-29
2021/12/29 01:38:31;;;;;;;0.43;0.28;;;18.20;68.60;;;;;;5016713;28;20034;-28
2021/12/29 01:40:56;;;;;;;0.30;0.30;;;18.20;68.50;;;;;;5017868;28;20519;-27
2021/12/29 01:43:22;;;;;;;0.40;0.30;;;18.20;68.60;;;;;;5018412;28;20041;-27
2021/12/29 01:45:48;;;;;;;0.38;0.30;;;18.20;68.50;;;;;;5018527;28;20099;-30
2021/12/29 01:48:16;;;;;;;0.60;0.30;;;18.20;68.50;;;;;;5000090;28;20573;-28
2021/12/29 01:50:44;;;;;;;0.20;0.20;;;18.20;68.60;;;;;;5018274;28;20045;-28
2021/12/29 01:53:12;;;;;;;0.20;0.20;;;18.20;68.50;;;;;;5017141;28;21525;-28
2021/12/29 01:55:38;;;;;;;0.20;0.20;;;18.20;68.50;;;;;;5024208;28;20232;-28
2021/12/29 01:58:04;;;;;;;0.20;0.17;;;18.20;68.50;;;;;;5036246;28;20033;-27
2021/12/29 02:00:31;;;;;;;0.22;0.22;;;18.20;68.40;;;;;;5021492;28;20404;-27
2021/12/29 02:02:57;;;;;;;0.20;0.13;;;18.20;68.50;;;;;;5017576;28;20077;-27
2021/12/29 02:05:22;;;;;;;0.50;0.30;;;18.20;68.50;;;;;;4996988;28;20076;-30
2021/12/29 02:07:48;;;;;;;0.22;0.22;;;18.20;68.50;;;;;;4981072;28;20058;-30
2021/12/29 02:10:15;;;;;;;0.70;0.30;;;18.20;68.40;;;;;;4993140;28;21033;-29
2021/12/29 02:12:41;;;;;;;0.40;0.30;;;18.20;68.40;;;;;;4991595;28;20052;-28
2021/12/29 02:15:07;;;;;;;0.20;0.20;;;18.20;68.50;;;;;;4997524;28;20517;-28
2021/12/29 02:17:33;;;;;;;0.20;0.20;;;18.10;68.60;;;;;;4990113;28;20070;-27
2021/12/29 02:20:06;;;;;;;0.32;0.20;;;18.10;68.80;;;;;;4978259;28;20109;-28
2021/12/29 02:22:44;;;;;;;0.28;0.22;;;18.10;68.80;;;;;;4993213;28;20058;-28
2021/12/29 02:27:52;;;;;;;0.30;0.30;;;18.10;68.70;;;;;;4982949;28;20546;-27
2021/12/29 02:30:22;;;;;;;0.43;0.30;;;18.10;68.60;;;;;;4996362;28;20073;-27
2021/12/29 02:32:49;;;;;;;0.40;0.40;;;18.10;68.60;;;;;;4998033;28;20069;-27
2021/12/29 02:35:15;;;;;;;1.70;0.40;;;18.10;68.60;;;;;;4997399;28;20074;-27
2021/12/29 02:37:41;;;;;;;0.30;0.30;;;18.10;68.60;;;;;;4997687;28;20034;-27
2021/12/29 02:40:07;;;;;;;0.57;0.22;;;18.10;68.60;;;;;;4997317;28;20038;-27
2021/12/29 02:42:40;;;;;;;0.32;0.25;;;18.10;68.70;;;;;;4996861;28;20092;-27
2021/12/29 02:45:08;;;;;;;0.35;0.35;;;18.10;68.80;;;;;;5011147;28;20041;-27
2021/12/29 02:47:34;;;;;;;0.30;0.20;;;18.10;68.80;;;;;;4997925;28;20050;-27
2021/12/29 02:50:00;;;;;;;0.17;0.17;;;18.00;68.60;;;;;;4995908;28;20046;-27
2021/12/29 02:52:25;;;;;;;0.20;0.20;;;18.10;68.70;;;;;;4997489;28;20066;-27
2021/12/29 02:54:51;;;;;;;0.17;0.17;;;18.10;68.80;;;;;;4996282;28;20126;-27
2021/12/29 02:57:17;;;;;;;0.20;0.20;;;18.10;68.70;;;;;;4982232;28;20057;-27
2021/12/29 02:59:43;;;;;;;0.20;0.20;;;18.10;68.70;;;;;;4995341;28;20038;-27
2021/12/29 03:02:08;;;;;;;0.55;0.30;;;18.10;68.80;;;;;;5016119;28;20129;-27
2021/12/29 03:04:34;;;;;;;0.35;0.35;;;18.10;68.80;;;;;;5004332;28;20058;-27
2021/12/29 03:07:00;;;;;;;0.95;0.60;;;18.10;68.80;;;;;;4996190;28;20038;-28
2021/12/29 03:09:25;;;;;;;0.30;0.30;;;18.00;68.80;;;;;;4995844;28;20434;-27
2021/12/29 03:11:51;;;;;;;0.35;0.32;;;18.10;68.80;;;;;;4997321;28;20035;-27
2021/12/29 03:14:17;;;;;;;0.25;0.20;;;18.00;68.80;;;;;;4996701;28;20101;-27
2021/12/29 03:16:43;;;;;;;0.30;0.30;;;18.00;68.80;;;;;;4997165;28;20050;-27
2021/12/29 03:19:09;;;;;;;0.45;0.30;;;18.00;68.80;;;;;;4995195;28;20061;-27
2021/12/29 03:21:34;;;;;;;0.30;0.30;;;18.00;68.80;;;;;;4995330;28;20037;-27
2021/12/29 03:24:00;;;;;;;0.35;0.30;;;18.10;68.80;;;;;;4996297;28;20046;-27
2021/12/29 03:26:26;;;;;;;0.30;0.30;;;18.00;68.80;;;;;;5010498;28;20049;-27
2021/12/29 03:28:52;;;;;;;0.25;0.25;;;18.00;68.80;;;;;;4997073;28;20125;-27
2021/12/29 03:31:21;;;;;;;0.20;0.20;;;18.10;68.90;;;;;;4996023;28;20394;-28
2021/12/29 03:33:46;;;;;;;0.30;0.20;;;18.00;68.90;;;;;;4996817;28;20064;-27
2021/12/29 03:36:12;;;;;;;0.30;0.30;;;18.00;68.90;;;;;;4996278;28;20582;-27
2021/12/29 03:38:39;;;;;;;0.65;0.47;;;18.00;68.90;;;;;;4996222;28;20070;-27
2021/12/29 03:41:07;;;;;;;0.25;0.25;;;18.00;69.00;;;;;;4995554;28;20495;-27
2021/12/29 03:43:32;;;;;;;0.50;0.30;;;18.00;68.90;;;;;;4996661;28;20054;-28
2021/12/29 03:45:58;;;;;;;0.20;0.20;;;18.00;68.80;;;;;;4994706;28;20045;-28
2021/12/29 03:48:25;;;;;;;0.30;0.17;;;18.00;68.80;;;;;;4996780;28;20269;-28
2021/12/29 03:50:51;;;;;;;0.40;0.40;;;18.00;68.80;;;;;;4996442;28;20423;-28
2021/12/29 03:53:16;;;;;;;0.25;0.20;;;18.00;69.00;;;;;;4994863;28;20062;-28
2021/12/29 03:55:43;;;;;;;0.20;0.20;;;18.00;69.00;;;;;;4990042;28;20034;-27
2021/12/29 03:58:09;;;;;;;0.20;0.20;;;18.00;69.00;;;;;;4993635;28;20566;-28
2021/12/29 04:00:34;;;;;;;0.45;0.45;;;18.00;68.90;;;;;;4996403;28;20492;-28
2021/12/29 04:03:00;;;;;;;0.35;0.35;;;18.00;68.80;;;;;;4994592;28;20533;-27
2021/12/29 04:05:26;;;;;;;0.30;0.30;;;18.00;68.80;;;;;;4996250;28;20499;-27
2021/12/29 04:07:53;;;;;;;0.22;0.22;;;18.00;68.90;;;;;;4995977;28;20066;-28
2021/12/29 04:10:18;;;;;;;0.25;0.20;;;18.00;69.00;;;;;;5015149;28;20038;-27
2021/12/29 04:12:44;;;;;;;0.30;0.30;;;18.00;69.00;;;;;;4992275;28;20049;-27
2021/12/29 04:15:11;;;;;;;0.47;0.38;;;18.00;69.00;;;;;;5015098;28;20041;-27
2021/12/29 04:17:38;;;;;;;0.35;0.30;;;18.00;69.00;;;;;;5015684;28;20405;-27
2021/12/29 04:22:56;;;;;;;0.40;0.30;;;18.00;68.90;;;;;;5015662;28;20096;-27
2021/12/29 04:25:24;;;;;;;0.15;0.13;;;18.00;69.00;;;;;;5013826;28;20042;-27
2021/12/29 04:27:54;;;;;;;0.30;0.20;;;18.00;69.00;;;;;;5015173;28;20068;-28
2021/12/29 04:30:20;;;;;;;0.30;0.30;;;18.00;69.00;;;;;;5013441;28;20501;-28
2021/12/29 04:32:46;;;;;;;0.15;0.15;;;18.00;69.00;;;;;;5015603;28;20049;-28
2021/12/29 04:35:11;;;;;;;0.28;0.28;;;18.00;69.00;;;;;;5013779;28;20486;-27
2021/12/29 04:37:37;;;;;;;0.22;0.22;;;18.00;69.00;;;;;;5015552;28;20092;-28
2021/12/29 04:40:04;;;;;;;0.30;0.20;;;18.00;69.00;;;;;;5014972;28;20030;-27
2021/12/29 04:42:29;;;;;;;0.30;0.30;;;18.00;69.00;;;;;;5015318;28;20502;-27
2021/12/29 04:44:55;;;;;;;0.30;0.30;;;17.90;69.00;;;;;;5013918;28;20141;-27
2021/12/29 04:47:27;;;;;;;0.20;0.20;;;18.00;69.10;;;;;;5013443;28;20046;-28
2021/12/29 04:49:53;;;;;;;0.15;0.10;;;18.00;69.00;;;;;;4991145;28;20049;-28
2021/12/29 04:52:19;;;;;;;0.20;0.20;;;18.00;69.00;;;;;;5014417;28;20076;-28
2021/12/29 04:54:44;;;;;;;0.40;0.20;;;18.00;69.00;;;;;;5015362;28;20042;-27
2021/12/29 04:57:10;;;;;;;0.10;0.10;;;17.90;69.10;;;;;;4995012;28;20042;-28
2021/12/29 04:59:36;;;;;;;0.15;0.15;;;18.00;69.20;;;;;;4995896;28;20455;-28
2021/12/29 05:02:02;;;;;;;0.20;0.20;;;18.00;69.80;;;;;;4995355;28;20074;-28
2021/12/29 05:04:33;;;;;;;0.20;0.20;;;18.00;69.10;;;;;;4995905;28;20066;-27
2021/12/29 05:09:44;;;;;;;0.20;0.20;;;18.00;69.10;;;;;;5017630;28;20145;-27
2021/12/29 05:12:09;;;;;;;0.20;0.20;;;18.00;69.20;;;;;;4982409;28;20063;-28
2021/12/29 05:14:35;;;;;;;0.20;0.20;;;18.00;69.10;;;;;;4980066;28;20455;-28
2021/12/29 05:17:01;;;;;;;0.10;0.10;;;18.00;69.10;;;;;;4999976;28;20138;-28
2021/12/29 05:19:27;;;;;;;0.20;0.20;;;18.00;69.10;;;;;;5014251;28;20050;-28
2021/12/29 05:21:53;;;;;;;0.13;0.13;;;18.00;69.20;;;;;;5013534;28;20100;-27
2021/12/29 05:24:18;;;;;;;0.28;0.20;;;18.00;69.10;;;;;;4998648;28;20092;-28
2021/12/29 05:26:44;;;;;;;0.40;0.20;;;18.00;69.10;;;;;;4999074;28;20045;-28
2021/12/29 05:29:09;;;;;;;0.20;0.10;;;18.00;69.00;;;;;;4998616;28;20050;-28
2021/12/29 05:31:35;;;;;;;0.08;0.08;;;17.90;69.10;;;;;;4998836;28;20045;-28
2021/12/29 05:34:01;;;;;;;0.10;0.10;;;18.00;69.20;;;;;;4999038;28;20048;-28
2021/12/29 05:36:26;;;;;;;0.20;0.10;;;17.90;69.10;;;;;;4998452;28;20819;-28
2021/12/29 05:38:53;;;;;;;0.30;0.20;;;18.00;69.10;;;;;;4998980;28;20069;-28
2021/12/29 05:41:19;;;;;;;0.10;0.10;;;17.90;69.10;;;;;;4998221;28;20053;-27
2021/12/29 05:43:45;;;;;;;0.13;0.10;;;17.90;69.10;;;;;;4999105;28;20064;-27
2021/12/29 05:46:11;;;;;;;0.15;0.15;;;18.00;69.20;;;;;;4997877;28;20030;-28
2021/12/29 05:48:36;;;;;;;0.10;0.10;;;17.90;69.10;;;;;;4998810;28;20053;-28
2021/12/29 05:51:02;;;;;;;0.20;0.20;;;17.90;69.10;;;;;;4998779;28;20042;-28
2021/12/29 05:53:27;;;;;;;0.17;0.10;;;17.90;69.10;;;;;;4998039;28;20133;-28
2021/12/29 05:55:53;;;;;;;0.10;0.10;;;17.90;69.10;;;;;;4997929;28;20047;-28
2021/12/29 05:58:19;;;;;;;0.10;0.10;;;18.00;69.10;;;;;;4997374;28;20511;-28
2021/12/29 06:00:44;;;;;;;0.20;0.20;;;18.00;69.20;;;;;;4998069;28;20369;-28
2021/12/29 06:03:10;;;;;;;0.10;0.10;;;18.00;69.20;;;;;;4997455;28;20038;-28
2021/12/29 06:05:36;;;;;;;0.17;0.10;;;18.00;69.20;;;;;;4998010;28;20046;-27
2021/12/29 06:08:02;;;;;;;0.10;0.10;;;17.90;69.10;;;;;;4996393;28;20046;-28
2021/12/29 06:10:28;;;;;;;0.25;0.20;;;18.00;69.20;;;;;;4996111;28;20514;-27
2021/12/29 06:12:54;;;;;;;0.10;0.10;;;18.00;69.30;;;;;;4995437;28;20054;-28
2021/12/29 06:15:20;;;;;;;1.35;0.10;;;18.00;69.20;;;;;;4997347;28;20042;-28
2021/12/29 06:17:45;;;;;;;0.10;0.10;;;18.00;69.20;;;;;;4997536;28;20046;-28
2021/12/29 06:20:11;;;;;;;0.43;0.20;;;18.00;69.20;;;;;;4995242;28;20034;-28
2021/12/29 06:22:37;;;;;;;0.10;0.10;;;18.00;69.30;;;;;;4995554;28;20137;-28
2021/12/29 06:25:04;;;;;;;0.00;0.00;;;18.00;69.30;;;;;;4994818;28;20069;-28
2021/12/29 06:27:31;;;;;;;0.40;0.10;;;18.00;69.20;;;;;;4995512;28;20184;-28
2021/12/29 06:29:57;;;;;;;0.13;0.10;;;18.00;69.20;;;;;;4997518;28;20091;-28
2021/12/29 06:32:22;;;;;;;0.30;0.10;;;17.90;69.20;;;;;;4995465;28;20137;-27
2021/12/29 06:34:48;;;;;;;0.10;0.00;;;17.90;69.10;;;;;;4997404;28;20047;-28
2021/12/29 06:37:14;;;;;;;0.10;0.10;;;18.00;69.20;;;;;;4996775;28;20093;-28
2021/12/29 06:39:41;;;;;;;0.13;0.10;;;17.90;69.10;;;;;;4996588;28;20077;-28
2021/12/29 06:42:07;;;;;;;0.30;0.05;;;18.00;69.20;;;;;;4995859;28;20414;-28
2021/12/29 06:44:32;;;;;;;0.22;0.10;;;17.90;69.20;;;;;;4996965;28;20034;-28
2021/12/29 06:46:58;;;;;;;0.10;0.10;;;18.00;69.20;;;;;;4997150;28;20058;-28
2021/12/29 06:49:24;;;;;;;0.10;0.10;;;17.90;69.10;;;;;;4996769;28;20084;-28
2021/12/29 06:51:50;;;;;;;0.15;0.10;;;18.00;69.20;;;;;;4996042;28;20034;-28
2021/12/29 06:54:15;;;;;;;0.10;0.10;;;18.00;69.20;;;;;;4995870;28;20100;-28
2021/12/29 06:56:41;;;;;;;0.10;0.10;;;18.00;69.20;;;;;;4994103;28;20094;-27
2021/12/29 06:59:06;;;;;;;0.10;0.10;;;17.90;69.10;;;;;;4977001;28;20054;-27
2021/12/29 07:01:32;;;;;;;0.10;0.10;;;17.90;69.20;;;;;;4994760;28;20054;-28
2021/12/29 07:03:58;;;;;;;0.03;0.00;;;18.00;69.10;;;;;;4995916;28;20038;-28
2021/12/29 07:06:23;;;;;;;0.10;0.10;;;18.00;69.20;;;;;;4992830;28;20045;-28
2021/12/29 07:08:49;;;;;;;0.30;0.10;;;18.00;69.10;;;;;;4994682;28;20101;-28
2021/12/29 07:11:14;;;;;;;0.10;0.10;;;18.00;69.10;;;;;;4994299;28;20525;-28
2021/12/29 07:13:42;;;;;;;0.20;0.10;;;18.00;69.20;;;;;;4995472;28;20046;-27
2021/12/29 07:16:08;;;;;;;0.10;0.10;;;18.00;69.20;;;;;;4993919;28;20042;-28
2021/12/29 07:18:33;;;;;;;0.00;0.00;;;17.90;69.10;;;;;;4995840;28;20042;-28
2021/12/29 07:20:59;;;;;;;0.10;0.10;;;18.00;69.20;;;;;;4995139;28;20050;-28
2021/12/29 07:23:24;;;;;;;0.17;0.10;;;18.00;69.20;;;;;;4995447;28;20572;-28
2021/12/29 07:25:50;;;;;;;0.00;0.00;;;17.90;69.20;;;;;;4996321;28;20046;-28
2021/12/29 07:28:16;;;;;;;0.13;0.13;;;17.90;69.20;;;;;;4992956;28;20557;-28
2021/12/29 07:30:41;;;;;;;0.10;0.10;;;17.90;69.30;;;;;;4995839;28;20518;-27
2021/12/29 07:33:08;;;;;;;0.10;0.10;;;17.90;69.30;;;;;;4994762;28;20121;-28
2021/12/29 07:35:33;;;;;;;0.00;0.00;;;17.90;69.20;;;;;;4993594;28;20463;-28
2021/12/29 07:37:59;;;;;;;0.10;0.10;;;17.90;69.30;;;;;;4995347;28;20069;-28
2021/12/29 07:40:24;;;;;;;0.10;0.10;;;17.90;69.20;;;;;;4993431;28;20046;-28
2021/12/29 07:42:50;;;;;;;0.00;0.00;;;17.90;69.20;;;;;;4994173;28;20042;-28
2021/12/29 07:45:16;;;;;;;0.00;0.00;;;17.90;69.20;;;;;;4993444;28;20038;-28
2021/12/29 07:47:47;;;;;;;0.10;0.00;;;17.90;69.10;;;;;;4994511;28;20050;-27
2021/12/29 07:50:16;;;;;;;0.08;0.08;;;17.90;69.20;;;;;;4994442;28;20050;-28
2021/12/29 07:52:47;;;;;;;0.15;0.00;;;17.90;69.20;;;;;;4997142;28;20038;-28
2021/12/29 07:55:17;;;;;;;0.10;0.10;;;17.90;69.20;;;;;;4993459;28;20050;-28
2021/12/29 07:57:42;;;;;;;0.10;0.10;;;17.90;69.10;;;;;;4993971;28;20073;-28
2021/12/29 08:00:09;;;;;;;0.00;0.00;;;17.90;69.20;;;;;;4994410;28;20042;-27
2021/12/29 08:02:35;;;;;;;0.13;0.10;;;17.90;69.20;;;;;;4994881;28;20039;-28
2021/12/29 08:05:00;;;;;;;0.03;0.03;;;17.90;69.20;;;;;;4993892;28;20065;-27
2021/12/29 08:07:26;;;;;;;0.00;0.00;;;17.90;69.10;;;;;;4994682;28;20438;-27
2021/12/29 08:09:52;;;;;;;0.10;0.10;;;17.90;69.20;;;;;;4993711;28;20041;-27
2021/12/29 08:12:18;;;;;;;0.00;0.00;;;17.90;69.20;;;;;;4993373;28;20503;-27
2021/12/29 08:14:45;;;;;;;0.20;0.00;;;18.00;69.20;;;;;;4991601;28;20061;-28
2021/12/29 08:17:12;;;;;;;0.10;0.10;;;17.90;69.20;;;;;;4993314;28;20042;-27
2021/12/29 08:19:37;;;;;;;0.00;0.00;;;17.90;69.20;;;;;;5028230;28;20041;-27
2021/12/29 08:22:03;;;;;;;0.20;0.10;;;17.90;69.20;;;;;;5013091;28;20087;-28
2021/12/29 08:24:29;;;;;;;0.10;0.00;;;17.90;69.30;;;;;;5012682;28;20053;-27
2021/12/29 08:26:54;;;;;;;0.10;0.10;;;17.90;69.20;;;;;;5013660;28;20102;-28
2021/12/29 08:29:20;;;;;;;0.08;0.00;;;17.90;69.20;;;;;;5012668;28;20054;-28
2021/12/29 08:31:46;;;;;;;0.08;0.00;;;17.90;69.20;;;;;;5009119;28;20034;-28
2021/12/29 08:34:11;;;;;;;0.00;0.00;;;17.90;69.20;;;;;;4991038;28;20038;-28
2021/12/29 08:36:37;;;;;;;0.52;0.10;;;17.90;69.30;;;;;;4993029;28;20162;-28
2021/12/29 08:39:03;;;;;;;0.10;0.10;;;17.90;69.30;;;;;;4995000;28;20514;-28
2021/12/29 08:41:29;;;;;;;0.00;0.00;;;17.90;69.20;;;;;;4998390;28;20109;-28
2021/12/29 08:43:54;;;;;;;0.10;0.00;;;17.90;69.20;;;;;;4996702;28;20050;-28
2021/12/29 08:46:20;;;;;;;0.08;0.00;;;17.90;69.20;;;;;;4998845;28;20184;-28
2021/12/29 08:48:46;;;;;;;0.20;0.00;;;17.90;69.20;;;;;;4997279;28;20073;-28
2021/12/29 08:51:11;;;;;;;0.00;0.00;;;17.90;69.20;;;;;;4997272;28;20062;-28
2021/12/29 08:53:37;;;;;;;0.08;0.08;;;17.90;69.20;;;;;;4997416;28;20137;-28
2021/12/29 08:56:04;;;;;;;0.00;0.00;;;17.90;69.30;;;;;;4998641;28;20566;-28
2021/12/29 08:58:30;;;;;;;0.10;0.10;;;17.90;69.30;;;;;;4996038;28;20054;-28
2021/12/29 09:00:56;;;;;;;0.03;0.03;;;17.90;69.30;;;;;;4997217;28;20042;-28
2021/12/29 09:03:22;;;;;;;0.10;0.00;;;17.90;69.30;;;;;;4998419;28;20046;-28
2021/12/29 09:05:48;;;;;;;0.00;0.00;;;17.90;69.30;;;;;;4995963;28;20102;-28
2021/12/29 09:08:13;;;;;;;0.15;0.00;;;17.90;69.20;;;;;;5008608;28;20471;-28
2021/12/29 09:10:39;;;;;;;0.28;0.00;;;17.90;69.20;;;;;;4998820;28;20066;-28
2021/12/29 09:13:05;;;;;;;0.10;0.10;;;17.90;69.20;;;;;;4995147;28;20145;-27
2021/12/29 09:15:30;;;;;;;0.20;0.10;;;17.90;69.20;;;;;;4648624;28;10000620;-27
2021/12/29 09:17:56;;;;;;;0.38;0.10;;;17.90;69.40;;;;;;4995316;28;20209;-27
2021/12/29 09:20:26;;;;;;;1.08;0.10;;;17.90;69.60;;;;;;4991989;28;20030;-28
2021/12/29 09:22:53;;;;;;;0.03;0.00;;;17.90;69.60;;;;;;5009115;28;20053;-27
2021/12/29 09:25:20;;;;;;;0.82;0.10;;;17.90;69.50;;;;;;5012252;28;20217;-27
2021/12/29 09:27:49;;;;;;;0.10;0.08;;;18.00;69.40;;;;;;4999611;28;20050;-28
2021/12/29 09:30:19;;;;;;;1.77;0.10;;;17.90;69.50;;;;;;4992860;28;20042;-27
2021/12/29 09:32:44;;;;;;;0.00;0.00;;;17.90;69.40;;;;;;5016598;28;20108;-27
2021/12/29 09:35:11;;;;;;;0.38;0.08;;;17.90;69.40;;;;;;5010729;28;20125;-28
2021/12/29 09:37:37;;;;;;;0.15;0.00;;;17.90;69.20;;;;;;4996105;28;20396;-28
2021/12/29 09:40:03;;;;;;;0.10;0.00;;;17.90;68.90;;;;;;4996063;28;20089;-27
2021/12/29 09:42:28;;;;;;;0.05;0.00;;;17.90;69.10;;;;;;4993390;28;20049;-28
2021/12/29 09:44:54;;;;;;;0.25;0.10;;;17.90;69.30;;;;;;5011338;28;20044;-27
2021/12/29 09:47:20;;;;;;;0.13;0.00;;;17.90;69.20;;;;;;5003560;28;20403;-27
2021/12/29 09:49:45;;;;;;;0.15;0.08;;;17.90;70.50;;;;;;5003309;28;20450;-27
2021/12/29 09:52:11;;;;;;;0.45;0.10;;;17.90;69.60;;;;;;4993770;28;20410;-26
2021/12/29 09:54:36;;;;;;;0.77;0.10;;;17.90;71.40;;;;;;4996292;28;20081;-27
2021/12/29 09:57:03;;;;;;;0.43;0.10;;;17.90;71.00;;;;;;4995876;28;20128;-27
2021/12/29 09:59:29;;;;;;;0.10;0.10;;;17.90;71.20;;;;;;4996616;28;20050;-27
2021/12/29 10:01:57;;;;;;;0.70;0.00;;;17.90;71.00;;;;;;4995509;28;20514;-27
2021/12/29 10:04:23;;;;;;;0.05;0.05;;;17.90;71.00;;;;;;4994682;28;20530;-28
2021/12/29 10:06:48;;;;;;;0.17;0.10;;;17.90;72.00;;;;;;4997061;28;20050;-26
2021/12/29 10:09:15;;;;;;;0.30;0.10;;;17.90;71.20;;;;;;4995815;28;20070;-27
2021/12/29 10:11:42;;;;;;;0.47;0.10;;;17.90;71.30;;;;;;4996622;28;20096;-27
2021/12/29 10:14:09;;;;;;;0.15;0.00;;;17.90;71.40;;;;;;4996422;28;20046;-26
2021/12/29 10:16:35;;;;;;;0.70;0.10;;;17.90;71.30;;;;;;4995973;28;20043;-26
2021/12/29 10:19:01;;;;;;;0.10;0.00;;;17.90;71.40;;;;;;4997953;28;20074;-27
2021/12/29 10:21:27;;;;;;;0.13;0.00;;;17.90;71.40;;;;;;4997366;28;20518;-27
2021/12/29 10:23:54;;;;;;;0.03;0.03;;;17.90;71.40;;;;;;4996143;28;20076;-27
2021/12/29 10:26:24;;;;;;;1.30;0.10;;;17.90;71.50;;;;;;4997470;28;20049;-27
2021/12/29 10:28:51;;;;;;;0.10;0.10;;;17.90;71.50;;;;;;4996814;28;20042;-27
2021/12/29 10:31:17;;;;;;;0.00;0.00;;;17.90;71.70;;;;;;4997384;28;20787;-27
2021/12/29 10:33:44;;;;;;;0.15;0.08;;;17.90;70.80;;;;;;4995545;28;20048;-27
2021/12/29 10:36:29;;;;;;;1.17;0.00;;;18.00;71.10;;;;;;4993307;28;20042;-27
2021/12/29 10:39:07;;;;;;;0.13;0.10;;;18.00;71.00;;;;;;5014131;28;20057;-27
2021/12/29 10:41:45;;;;;;;0.75;0.00;;;18.00;71.30;;;;;;5001202;28;20047;-27
2021/12/29 10:44:12;;;;;;;0.08;0.00;;;18.00;71.60;;;;;;4996933;28;20054;-26
2021/12/29 10:46:38;;;;;;;0.10;0.10;;;18.00;71.80;;;;;;4996309;28;20050;-26
2021/12/29 10:49:05;;;;;;;0.47;0.20;;;18.10;71.90;;;;;;4994508;28;20049;-27
2021/12/29 10:51:36;;;;;;;0.30;0.00;;;18.10;72.00;;;;;;4995595;28;20046;-26
2021/12/29 10:54:12;;;;;;;0.45;0.00;;;18.00;72.30;;;;;;4994892;28;20047;-26
2021/12/29 10:56:39;;;;;;;1.95;0.00;;;18.10;72.40;;;;;;4995570;28;20043;-27
2021/12/29 10:59:19;;;;;;;0.10;0.00;;;18.10;72.30;;;;;;4646017;28;10000437;-26
2021/12/29 11:01:45;;;;;;;0.52;0.17;;;18.10;72.50;;;;;;4990492;28;20529;-26
2021/12/29 11:04:12;;;;;;;1.25;0.03;;;18.00;72.40;;;;;;4986492;28;20450;-27
2021/12/29 11:06:41;;;;;;;0.25;0.10;;;18.00;72.50;;;;;;4985394;28;20034;-26
2021/12/29 11:09:06;;;;;;;1.20;0.00;;;18.00;72.50;;;;;;4993313;28;20145;-27
2021/12/29 11:11:40;;;;;;;0.93;0.28;;;18.20;72.00;;;;;;4995130;28;20066;-27
2021/12/29 11:14:21;;;;;;;1.10;0.20;;;18.20;72.00;;;;;;4994472;28;20125;-26
2021/12/29 11:16:47;;;;;;;1.23;0.10;;;18.10;72.30;;;;;;4995321;28;20042;-26
2021/12/29 11:19:13;;;;;;;2.50;0.05;;;18.10;72.00;;;;;;4995259;28;20101;-26
2021/12/29 11:21:42;;;;;;;0.00;0.00;;;18.20;72.10;;;;;;4994809;28;20050;-26
2021/12/29 11:24:25;;;;;;;0.60;0.10;;;18.10;72.10;;;;;;4995986;28;20038;-26
2021/12/29 11:26:51;;;;;;;0.20;0.10;;;18.10;72.30;;;;;;4991953;28;20038;-26
2021/12/29 11:29:21;;;;;;;1.35;0.10;;;18.10;72.00;;;;;;4995041;28;20100;-26
2021/12/29 11:31:57;;;;;;;1.17;0.10;;;18.10;72.20;;;;;;4993238;28;20438;-26
2021/12/29 11:34:26;;;;;;;0.30;0.10;;;18.10;72.30;;;;;;4990662;28;20153;-26
2021/12/29 11:37:08;;;;;;;0.30;0.00;;;18.10;72.40;;;;;;5004352;28;20049;-26
2021/12/29 11:39:36;;;;;;;0.03;0.00;;;18.10;72.50;;;;;;4995692;28;20043;-26
2021/12/29 11:42:02;;;;;;;2.05;0.32;;;18.10;72.50;;;;;;5008860;28;20040;-27
2021/12/29 11:44:28;;;;;;;0.30;0.10;;;18.10;72.30;;;;;;4999616;28;20042;-28
2021/12/29 11:46:53;;;;;;;2.00;0.15;;;18.10;72.30;;;;;;4987872;28;20077;-26
2021/12/29 11:49:19;;;;;;;2.20;0.20;;;18.20;71.70;;;;;;4991148;28;20046;-27
2021/12/29 11:51:59;;;;;;;0.28;0.10;;;18.20;72.10;;;;;;4989654;28;20108;-27
2021/12/29 11:54:34;;;;;;;0.20;0.15;;;18.10;72.20;;;;;;4991782;28;20038;-27
2021/12/29 11:57:10;;;;;;;0.10;0.10;;;18.10;72.30;;;;;;4992588;28;20042;-28
2021/12/29 11:59:35;;;;;;;0.57;0.10;;;18.10;72.10;;;;;;4989825;28;20106;-27
2021/12/29 12:02:02;;;;;;;0.20;0.10;;;18.20;72.90;;;;;;5007896;28;20452;-27
2021/12/29 12:04:28;;;;;;;2.05;0.10;;;18.20;71.90;;;;;;4991034;28;20101;-27
2021/12/29 12:07:05;;;;;;;1.17;0.10;;;18.20;71.90;;;;;;4989505;28;20469;-26
2021/12/29 12:09:47;;;;;;;1.15;0.20;;;18.20;71.90;;;;;;4994332;28;20857;-27
2021/12/29 12:12:12;;;;;;;0.00;0.00;;;18.20;71.70;;;;;;4991988;28;20058;-27
2021/12/29 12:14:49;;;;;;;0.40;0.08;;;18.20;71.70;;;;;;4990966;28;20085;-27
2021/12/29 12:17:23;;;;;;;1.95;0.20;;;18.40;71.40;;;;;;4991050;28;20074;-27
2021/12/29 12:20:05;;;;;;;2.20;0.40;;;18.30;71.70;;;;;;4987063;28;20038;-27
2021/12/29 12:22:43;;;;;;;1.27;0.20;;;18.30;72.10;;;;;;4986460;28;20106;-27
2021/12/29 12:25:09;;;;;;;4.13;0.40;;;18.30;71.70;;;;;;5001295;28;20042;-27
2021/12/29 12:27:42;;;;;;;0.75;0.10;;;18.30;71.90;;;;;;5007531;28;20076;-27
2021/12/29 12:30:16;;;;;;;1.35;0.20;;;18.30;73.80;;;;;;4988039;28;20034;-27
2021/12/29 12:32:49;;;;;;;;;;;18.30;73.90;;;;;;4988288;28;20026;-27
2021/12/29 12:35:36;;;;;;;0.57;0.30;;;18.30;73.40;;;;;;4988429;28;19964;-26
2021/12/29 12:38:33;;;;;;;0.10;0.10;;;18.40;73.70;;;;;;4990681;28;20038;-27
2021/12/29 12:41:31;;;;;;;2.38;0.30;;;18.40;73.90;;;;;;4993170;28;20056;-27
2021/12/29 12:43:58;;;;;;;0.60;0.40;;;18.30;73.50;;;;;;4986778;28;20462;-27
2021/12/29 12:46:41;;;;;;;0.60;0.35;;;18.30;73.50;;;;;;4984436;28;20046;-27
2021/12/29 12:49:28;;;;;;;1.20;0.20;;;18.40;73.40;;;;;;5004874;28;20197;-27
2021/12/29 12:52:04;;;;;;;2.17;0.45;;;18.40;73.40;;;;;;5014532;28;20058;-27
2021/12/29 12:54:34;;;;;;;2.00;0.20;;;18.40;72.90;;;;;;5014823;28;20101;-27
2021/12/29 12:57:00;;;;;;;0.35;0.28;;;18.40;73.00;;;;;;5011748;28;20046;-27
2021/12/29 12:59:39;;;;;;;0.20;0.20;;;18.40;73.40;;;;;;5010417;28;20498;-27